Time;durP1;ratioP1;P1;durP2;ratioP2;P2;SDS_P1;SDS_P2;PMS_P1;PMS_P2;Temp;Humidity;BMP_temperature;BMP_pressure;BME280_temperature;BME280_humidity;BME280_pressure;Samples;Min_cycle;Max_cycle;Signal;HPM_P1;HPM_P2
2023/05/17 00:01:32;;;;;;;15.10;4.32;;;8.90;99.90;;;;;;5094961;28;20365;-62
2023/05/17 00:03:58;;;;;;;20.52;5.45;;;8.90;99.90;;;;;;5113421;28;20476;-62
2023/05/17 00:06:24;;;;;;;18.25;4.55;;;8.80;99.90;;;;;;5113487;27;20031;-62
2023/05/17 00:08:49;;;;;;;18.15;4.53;;;8.80;99.90;;;;;;5112176;28;20035;-62
2023/05/17 00:11:15;;;;;;;20.20;5.72;;;8.80;99.90;;;;;;5113870;28;20046;-62
2023/05/17 00:13:41;;;;;;;16.40;4.32;;;8.80;99.90;;;;;;5112056;28;20114;-62
2023/05/17 00:16:07;;;;;;;18.55;4.15;;;8.80;99.90;;;;;;5113213;28;20043;-62
2023/05/17 00:18:33;;;;;;;15.82;5.53;;;8.80;99.90;;;;;;5113221;28;20131;-62
2023/05/17 00:20:58;;;;;;;13.95;3.70;;;8.80;99.90;;;;;;5113225;28;20114;-62
2023/05/17 00:23:24;;;;;;;15.95;4.22;;;8.80;99.90;;;;;;5110962;28;20046;-62
2023/05/17 00:25:50;;;;;;;12.05;4.80;;;8.70;99.90;;;;;;5112423;28;20052;-62
2023/05/17 00:28:15;;;;;;;17.77;3.75;;;8.70;99.90;;;;;;5112227;28;20031;-62
2023/05/17 00:30:41;;;;;;;15.88;3.58;;;8.80;99.90;;;;;;5112633;28;20500;-62
2023/05/17 00:33:07;;;;;;;16.05;4.70;;;8.80;99.90;;;;;;5113465;28;20080;-62
2023/05/17 00:35:33;;;;;;;13.65;4.25;;;8.80;99.90;;;;;;5113091;28;20031;-62
2023/05/17 00:37:58;;;;;;;16.38;3.78;;;8.90;99.90;;;;;;5111760;28;20392;-62
2023/05/17 00:40:24;;;;;;;21.15;5.28;;;8.90;99.90;;;;;;5113004;28;20036;-62
2023/05/17 00:42:50;;;;;;;14.65;4.82;;;8.90;99.90;;;;;;5111100;28;20124;-62
2023/05/17 00:45:16;;;;;;;21.38;3.95;;;8.90;99.90;;;;;;5095070;28;20392;-62
2023/05/17 00:47:41;;;;;;;14.43;4.18;;;8.90;99.90;;;;;;5113175;28;20101;-62
2023/05/17 00:50:07;;;;;;;18.52;3.97;;;8.90;99.90;;;;;;5112698;28;20480;-62
2023/05/17 00:52:34;;;;;;;15.60;4.30;;;8.90;99.90;;;;;;5110702;28;20453;-62
2023/05/17 00:55:00;;;;;;;13.15;3.28;;;8.90;99.90;;;;;;5113227;28;20119;-62
2023/05/17 00:57:28;;;;;;;14.07;3.47;;;8.80;99.90;;;;;;5093623;28;20043;-61
2023/05/17 00:59:54;;;;;;;11.73;4.07;;;8.80;99.90;;;;;;5113392;28;20035;-62
2023/05/17 01:02:20;;;;;;;13.90;3.78;;;8.80;99.90;;;;;;5112691;28;20035;-62
2023/05/17 01:04:47;;;;;;;18.95;3.88;;;8.70;99.90;;;;;;5110697;28;20031;-62
2023/05/17 01:07:13;;;;;;;11.00;3.80;;;8.70;99.90;;;;;;5111434;28;20039;-62
2023/05/17 01:09:39;;;;;;;21.65;4.13;;;8.70;99.90;;;;;;5112799;28;20617;-62
2023/05/17 01:12:31;;;;;;;15.65;3.97;;;8.70;99.90;;;;;;5112397;28;20067;-62
2023/05/17 01:15:15;;;;;;;19.00;4.63;;;8.80;99.90;;;;;;5111986;28;20071;-61
2023/05/17 01:18:05;;;;;;;12.93;3.30;;;8.80;99.90;;;;;;5112569;28;20048;-62
2023/05/17 01:20:40;;;;;;;14.60;4.22;;;8.80;99.90;;;;;;5112435;28;20122;-62
2023/05/17 01:23:33;;;;;;;15.00;3.45;;;8.70;99.90;;;;;;5111577;28;20089;-62
2023/05/17 01:26:38;;;;;;;12.23;3.20;;;8.80;99.90;;;;;;5111744;28;20051;-62
2023/05/17 01:29:07;;;;;;;13.38;3.30;;;8.70;99.90;;;;;;5112355;28;20086;-61
2023/05/17 01:31:33;;;;;;;13.95;2.88;;;8.70;99.90;;;;;;5093831;28;20074;-62
2023/05/17 01:34:00;;;;;;;13.60;3.90;;;8.70;99.90;;;;;;5111209;28;20507;-62
2023/05/17 01:36:26;;;;;;;10.60;3.28;;;8.70;99.90;;;;;;5110667;28;20042;-61
2023/05/17 01:38:51;;;;;;;12.10;3.63;;;8.70;99.90;;;;;;5111695;28;20039;-62
2023/05/17 01:41:32;;;;;;;9.23;3.08;;;8.70;99.90;;;;;;5110430;28;20112;-62
2023/05/17 01:44:25;;;;;;;17.33;3.60;;;8.60;99.90;;;;;;5111199;28;20071;-62
2023/05/17 01:46:59;;;;;;;9.63;2.53;;;8.60;99.90;;;;;;5110653;28;20044;-62
2023/05/17 01:49:31;;;;;;;10.67;2.93;;;8.60;99.90;;;;;;5110769;28;20070;-62
2023/05/17 01:52:38;;;;;;;14.55;3.42;;;8.60;99.90;;;;;;5111488;28;20036;-62
2023/05/17 01:55:04;;;;;;;12.93;3.35;;;8.60;99.90;;;;;;5079636;28;20048;-61
2023/05/17 01:57:35;;;;;;;16.15;3.13;;;8.50;99.90;;;;;;5073702;28;20054;-62
2023/05/17 02:00:05;;;;;;;12.15;2.50;;;8.50;99.90;;;;;;5090751;28;20365;-62
2023/05/17 02:02:31;;;;;;;9.38;2.15;;;8.50;99.90;;;;;;5089903;28;20054;-62
2023/05/17 02:04:57;;;;;;;12.15;2.28;;;8.50;99.90;;;;;;5092239;28;20039;-62
2023/05/17 02:07:23;;;;;;;10.90;2.25;;;8.40;99.90;;;;;;5123402;28;20052;-62
2023/05/17 02:09:48;;;;;;;9.25;2.50;;;8.40;99.90;;;;;;5091075;28;20380;-62
2023/05/17 02:12:14;;;;;;;16.05;2.80;;;8.40;99.90;;;;;;5090790;28;20104;-61
2023/05/17 02:14:40;;;;;;;7.65;2.45;;;8.50;99.90;;;;;;5106474;28;20140;-62
2023/05/17 02:17:06;;;;;;;10.50;2.47;;;8.50;99.90;;;;;;5092069;28;20071;-61
2023/05/17 02:19:32;;;;;;;10.50;2.42;;;8.50;99.90;;;;;;5091339;28;20105;-62
2023/05/17 02:21:57;;;;;;;7.13;2.20;;;8.60;99.90;;;;;;5091226;28;20051;-62
2023/05/17 02:24:23;;;;;;;11.27;2.80;;;8.60;99.90;;;;;;5091246;28;20435;-62
2023/05/17 02:26:49;;;;;;;16.02;3.63;;;8.60;99.90;;;;;;5091790;28;20059;-62
2023/05/17 02:29:14;;;;;;;9.98;2.40;;;8.70;99.90;;;;;;5123486;28;20062;-62
2023/05/17 02:31:40;;;;;;;11.70;2.95;;;8.60;99.90;;;;;;5091380;28;20040;-62
2023/05/17 02:34:06;;;;;;;18.67;3.75;;;8.70;99.90;;;;;;5124367;28;20043;-62
2023/05/17 02:36:31;;;;;;;18.67;4.50;;;8.70;99.90;;;;;;5123059;28;20147;-62
2023/05/17 02:38:57;;;;;;;12.00;3.17;;;8.60;99.90;;;;;;5091937;28;20036;-62
2023/05/17 02:41:23;;;;;;;11.98;3.17;;;8.60;99.90;;;;;;5123699;28;20518;-61
2023/05/17 02:43:49;;;;;;;16.23;3.53;;;8.60;99.90;;;;;;5124813;27;20456;-62
2023/05/17 02:46:15;;;;;;;14.88;2.88;;;8.60;99.90;;;;;;5095214;28;20393;-62
2023/05/17 02:48:41;;;;;;;14.23;2.95;;;8.60;99.90;;;;;;5095193;28;20040;-62
2023/05/17 02:51:06;;;;;;;13.25;3.92;;;8.60;99.90;;;;;;5094429;28;20071;-62
2023/05/17 02:53:32;;;;;;;10.65;2.63;;;8.70;99.90;;;;;;5094692;28;20442;-62
2023/05/17 02:55:58;;;;;;;12.25;3.53;;;8.70;99.90;;;;;;5095020;28;20044;-63
2023/05/17 02:58:24;;;;;;;12.35;2.55;;;8.70;99.90;;;;;;5126477;27;20040;-62
2023/05/17 03:00:50;;;;;;;12.45;3.13;;;8.70;99.90;;;;;;5093846;28;20403;-62
2023/05/17 03:03:16;;;;;;;10.38;2.42;;;8.70;99.90;;;;;;5094896;28;20032;-62
2023/05/17 03:05:42;;;;;;;9.38;2.00;;;8.70;99.90;;;;;;5093800;28;20396;-62
2023/05/17 03:08:07;;;;;;;8.60;2.45;;;8.60;99.90;;;;;;5094936;28;20039;-62
2023/05/17 03:10:33;;;;;;;6.28;1.70;;;8.60;99.90;;;;;;5126092;27;20039;-63
2023/05/17 03:12:59;;;;;;;15.25;2.92;;;8.60;99.90;;;;;;5127501;27;20040;-62
2023/05/17 03:15:28;;;;;;;7.22;2.47;;;8.60;99.90;;;;;;5126955;27;20083;-62
2023/05/17 03:17:54;;;;;;;9.68;1.70;;;8.60;99.90;;;;;;5094155;28;20119;-61
2023/05/17 03:20:20;;;;;;;10.90;2.72;;;8.60;99.90;;;;;;5094351;28;20036;-62
2023/05/17 03:22:46;;;;;;;7.38;2.25;;;8.60;99.90;;;;;;5094705;28;20506;-62
2023/05/17 03:25:12;;;;;;;17.85;2.47;;;8.60;99.90;;;;;;5093445;28;20058;-62
2023/05/17 03:27:37;;;;;;;10.13;1.92;;;8.60;99.90;;;;;;5094368;28;20117;-62
2023/05/17 03:30:03;;;;;;;8.63;1.77;;;8.60;99.90;;;;;;5127628;27;20473;-62
2023/05/17 03:32:29;;;;;;;11.07;2.50;;;8.60;99.90;;;;;;5126014;27;20036;-62
2023/05/17 03:34:55;;;;;;;10.65;2.20;;;8.60;99.90;;;;;;5112455;28;20096;-62
2023/05/17 03:37:20;;;;;;;9.38;1.95;;;8.60;99.90;;;;;;5114310;28;20495;-62
2023/05/17 03:39:46;;;;;;;7.82;1.75;;;8.60;99.90;;;;;;5113885;28;20039;-62
2023/05/17 03:42:12;;;;;;;12.20;2.53;;;8.60;99.90;;;;;;5114336;28;20446;-62
2023/05/17 03:44:37;;;;;;;10.40;1.92;;;8.60;99.90;;;;;;5114199;27;20059;-62
2023/05/17 03:47:03;;;;;;;11.15;2.13;;;8.60;99.90;;;;;;5112485;28;20465;-62
2023/05/17 03:49:29;;;;;;;11.60;2.28;;;8.60;99.90;;;;;;5112687;28;20067;-62
2023/05/17 03:51:54;;;;;;;6.55;2.17;;;8.60;99.90;;;;;;5114097;28;20031;-62
2023/05/17 03:54:20;;;;;;;6.90;2.00;;;8.60;99.90;;;;;;5112095;28;20027;-62
2023/05/17 03:56:47;;;;;;;12.05;2.63;;;8.60;99.90;;;;;;5113652;28;20075;-62
2023/05/17 03:59:13;;;;;;;11.90;2.40;;;8.60;99.90;;;;;;5114141;28;20043;-62
2023/05/17 04:01:40;;;;;;;10.70;1.77;;;8.60;99.90;;;;;;5113143;28;20552;-62
2023/05/17 04:04:06;;;;;;;8.82;2.40;;;8.70;99.90;;;;;;5102020;28;20043;-62
2023/05/17 04:06:31;;;;;;;8.52;2.15;;;8.70;99.90;;;;;;5093121;28;20047;-62
2023/05/17 04:08:58;;;;;;;12.15;2.78;;;8.60;99.90;;;;;;5092780;28;20040;-62
2023/05/17 04:11:26;;;;;;;12.77;2.92;;;8.60;99.90;;;;;;5093251;28;20101;-62
2023/05/17 04:13:53;;;;;;;9.95;3.55;;;8.60;99.90;;;;;;5125355;27;20071;-62
2023/05/17 04:16:19;;;;;;;12.45;2.30;;;8.70;99.90;;;;;;5126147;27;20047;-62
2023/05/17 04:18:45;;;;;;;7.10;2.33;;;8.70;99.90;;;;;;5093585;28;20054;-62
2023/05/17 04:21:11;;;;;;;9.18;2.15;;;8.70;99.90;;;;;;5092514;28;20039;-62
2023/05/17 04:23:37;;;;;;;12.00;3.25;;;8.70;99.90;;;;;;5092936;28;20397;-62
2023/05/17 04:26:04;;;;;;;11.77;3.00;;;8.70;99.90;;;;;;5075292;28;20051;-62
2023/05/17 04:28:30;;;;;;;6.70;2.05;;;8.70;99.90;;;;;;5073853;28;20065;-62
2023/05/17 04:30:56;;;;;;;12.10;2.10;;;8.70;99.90;;;;;;5093428;28;20082;-62
2023/05/17 04:33:22;;;;;;;9.07;1.80;;;8.70;99.90;;;;;;5125273;27;20042;-62
2023/05/17 04:35:49;;;;;;;7.60;2.08;;;8.70;99.90;;;;;;5091199;28;20048;-62
2023/05/17 04:38:15;;;;;;;8.43;3.00;;;8.70;99.90;;;;;;5125759;27;20509;-62
2023/05/17 04:40:41;;;;;;;11.95;2.28;;;8.70;99.90;;;;;;5093125;28;20455;-62
2023/05/17 04:43:07;;;;;;;10.18;2.03;;;8.70;99.90;;;;;;5092142;28;20059;-62
2023/05/17 04:45:33;;;;;;;11.35;2.47;;;8.80;99.90;;;;;;5125415;27;20047;-62
2023/05/17 04:47:59;;;;;;;10.35;2.05;;;8.80;99.90;;;;;;5093110;28;20036;-62
2023/05/17 04:50:25;;;;;;;9.60;1.92;;;8.80;99.90;;;;;;5124417;27;20047;-62
2023/05/17 04:52:51;;;;;;;8.20;1.83;;;8.80;99.90;;;;;;5092887;28;20032;-62
2023/05/17 04:55:17;;;;;;;11.90;2.20;;;8.80;99.90;;;;;;5125508;27;20063;-63
2023/05/17 04:57:43;;;;;;;11.32;2.53;;;8.80;99.90;;;;;;5124671;27;20111;-62
2023/05/17 05:00:10;;;;;;;8.10;1.88;;;8.90;99.90;;;;;;5092732;28;20032;-62
2023/05/17 05:02:36;;;;;;;7.00;1.90;;;8.90;99.90;;;;;;5125574;27;20055;-62
2023/05/17 05:05:03;;;;;;;9.73;1.52;;;9.00;99.90;;;;;;5109435;28;20488;-62
2023/05/17 05:07:29;;;;;;;8.15;2.40;;;9.00;99.90;;;;;;5110400;28;20058;-62
2023/05/17 05:09:55;;;;;;;12.43;2.63;;;9.00;99.90;;;;;;5112793;28;20032;-62
2023/05/17 05:12:21;;;;;;;9.38;1.75;;;9.10;99.90;;;;;;5110896;28;20044;-62
2023/05/17 05:14:47;;;;;;;10.23;2.50;;;9.20;99.90;;;;;;5112788;28;20403;-62
2023/05/17 05:17:12;;;;;;;8.00;1.90;;;9.10;99.90;;;;;;5111899;28;20096;-62
2023/05/17 05:19:38;;;;;;;10.57;2.70;;;9.10;99.90;;;;;;5112583;28;20036;-62
2023/05/17 05:22:04;;;;;;;9.45;2.95;;;9.00;99.90;;;;;;5112828;28;20544;-62
2023/05/17 05:24:29;;;;;;;14.50;3.05;;;9.00;99.90;;;;;;5098315;28;20393;-62
2023/05/17 05:26:55;;;;;;;9.52;3.13;;;8.90;99.90;;;;;;5092073;28;20093;-62
2023/05/17 05:29:21;;;;;;;7.18;2.42;;;9.00;99.90;;;;;;5091484;28;20043;-62
2023/05/17 05:31:46;;;;;;;10.60;2.25;;;9.00;99.90;;;;;;5091585;28;20039;-62
2023/05/17 05:34:12;;;;;;;13.35;3.10;;;9.00;99.90;;;;;;5099683;28;20031;-62
2023/05/17 05:36:38;;;;;;;11.20;3.17;;;9.00;99.90;;;;;;5111060;28;20100;-62
2023/05/17 05:39:03;;;;;;;10.98;2.72;;;9.10;99.90;;;;;;5110797;28;20384;-62
2023/05/17 05:41:30;;;;;;;12.45;3.50;;;9.20;99.90;;;;;;5112143;28;20044;-62
2023/05/17 05:43:56;;;;;;;11.73;2.80;;;9.20;99.90;;;;;;5112472;28;20084;-62
2023/05/17 05:46:21;;;;;;;11.48;3.13;;;9.30;99.90;;;;;;5111152;28;20091;-62
2023/05/17 05:48:47;;;;;;;7.65;2.35;;;9.40;99.90;;;;;;5112555;28;20381;-62
2023/05/17 05:51:13;;;;;;;15.30;3.33;;;9.50;99.90;;;;;;5094029;28;20047;-62
2023/05/17 05:53:38;;;;;;;16.77;3.78;;;9.50;99.90;;;;;;5110185;28;20050;-62
2023/05/17 05:56:04;;;;;;;11.27;2.88;;;9.50;99.90;;;;;;5110890;28;20115;-62
2023/05/17 05:58:30;;;;;;;9.77;2.67;;;9.50;99.90;;;;;;5111944;28;20109;-62
2023/05/17 06:00:56;;;;;;;15.77;3.35;;;9.50;99.90;;;;;;5110453;28;20044;-62
2023/05/17 06:03:22;;;;;;;18.02;3.65;;;9.50;99.90;;;;;;5112016;28;20046;-62
2023/05/17 06:05:48;;;;;;;9.60;2.80;;;9.50;99.90;;;;;;5098611;28;20036;-62
2023/05/17 06:08:14;;;;;;;10.57;2.50;;;9.60;99.90;;;;;;5093474;28;20024;-62
2023/05/17 06:10:40;;;;;;;12.00;3.15;;;9.60;99.90;;;;;;5096893;28;20489;-62
2023/05/17 06:13:05;;;;;;;9.52;2.20;;;9.60;99.90;;;;;;5096912;28;20063;-62
2023/05/17 06:15:31;;;;;;;10.10;2.97;;;9.60;99.90;;;;;;5124066;28;20396;-62
2023/05/17 06:17:57;;;;;;;10.55;3.33;;;9.70;99.90;;;;;;5111451;28;20047;-62
2023/05/17 06:20:22;;;;;;;14.77;3.10;;;9.70;99.90;;;;;;5113450;28;20035;-62
2023/05/17 06:22:48;;;;;;;8.00;2.22;;;9.70;99.90;;;;;;5114793;28;20043;-62
2023/05/17 06:25:14;;;;;;;14.07;3.63;;;9.60;99.90;;;;;;5115866;28;20140;-62
2023/05/17 06:27:39;;;;;;;10.73;3.08;;;9.60;99.90;;;;;;5111347;28;20032;-62
2023/05/17 06:30:06;;;;;;;11.05;2.75;;;9.60;99.90;;;;;;5112516;28;20085;-63
2023/05/17 06:32:32;;;;;;;12.02;2.53;;;9.50;99.90;;;;;;5092422;28;20079;-64
2023/05/17 06:34:58;;;;;;;10.15;2.58;;;9.60;99.90;;;;;;5092341;28;20047;-63
2023/05/17 06:37:24;;;;;;;11.77;3.42;;;9.60;99.90;;;;;;5124958;27;20392;-63
2023/05/17 06:39:51;;;;;;;8.80;3.10;;;9.60;99.90;;;;;;5092897;28;20039;-63
2023/05/17 06:42:17;;;;;;;11.60;3.45;;;9.70;99.90;;;;;;5091653;28;20047;-63
2023/05/17 06:44:43;;;;;;;10.20;2.55;;;9.80;99.90;;;;;;5090854;28;20075;-63
2023/05/17 06:47:09;;;;;;;10.23;2.88;;;9.80;99.90;;;;;;5092195;28;20464;-63
2023/05/17 06:49:36;;;;;;;8.82;3.03;;;9.80;99.90;;;;;;5089762;28;20039;-63
2023/05/17 06:52:04;;;;;;;8.75;2.38;;;9.80;99.90;;;;;;5123865;27;20107;-63
2023/05/17 06:54:30;;;;;;;12.55;2.72;;;9.80;99.90;;;;;;5104594;28;20036;-62
2023/05/17 06:57:00;;;;;;;11.02;2.90;;;9.90;99.90;;;;;;5107070;28;20510;-62
2023/05/17 06:59:26;;;;;;;10.35;2.53;;;9.90;99.90;;;;;;5103385;28;20048;-62
2023/05/17 07:01:52;;;;;;;10.40;2.78;;;10.00;99.90;;;;;;5098077;28;20046;-63
2023/05/17 07:04:17;;;;;;;9.43;2.83;;;10.00;99.90;;;;;;5097899;28;20056;-62
2023/05/17 07:06:43;;;;;;;14.48;3.28;;;10.10;99.90;;;;;;5091922;28;20132;-62
2023/05/17 07:09:09;;;;;;;16.38;3.00;;;10.10;99.90;;;;;;5112434;28;20050;-60
2023/05/17 07:11:34;;;;;;;11.75;2.20;;;10.10;99.90;;;;;;5110405;28;20695;-60
2023/05/17 07:14:00;;;;;;;12.10;2.67;;;10.00;99.90;;;;;;5110859;28;20395;-60
2023/05/17 07:16:26;;;;;;;10.98;3.75;;;10.00;99.90;;;;;;5111645;28;20046;-60
2023/05/17 07:18:51;;;;;;;13.00;2.80;;;10.00;99.90;;;;;;5097605;28;20047;-60
2023/05/17 07:21:17;;;;;;;14.35;3.08;;;10.20;99.90;;;;;;5108039;28;20053;-60
2023/05/17 07:23:42;;;;;;;11.60;2.67;;;10.30;99.90;;;;;;5090229;28;20044;-60
2023/05/17 07:26:08;;;;;;;10.93;2.28;;;10.30;99.90;;;;;;5100148;28;20446;-60
2023/05/17 07:28:34;;;;;;;9.43;2.47;;;10.40;99.90;;;;;;5110066;28;20040;-60
2023/05/17 07:31:00;;;;;;;10.00;2.60;;;10.50;99.90;;;;;;5109517;28;20040;-60
2023/05/17 07:33:26;;;;;;;9.07;2.00;;;10.50;99.90;;;;;;5092837;28;20139;-60
2023/05/17 07:35:52;;;;;;;9.38;2.47;;;10.50;99.90;;;;;;5111892;28;20113;-60
2023/05/17 07:38:18;;;;;;;14.60;2.95;;;10.50;99.90;;;;;;5092737;28;20071;-60
2023/05/17 07:40:44;;;;;;;10.38;3.20;;;10.50;99.90;;;;;;5110328;28;20508;-60
2023/05/17 07:43:10;;;;;;;16.45;3.00;;;10.50;99.90;;;;;;5110932;28;20051;-60
2023/05/17 07:45:36;;;;;;;25.67;4.15;;;10.50;99.90;;;;;;5110670;28;20044;-61
2023/05/17 07:48:02;;;;;;;14.27;3.75;;;10.40;99.90;;;;;;5093496;28;20038;-61
2023/05/17 07:50:28;;;;;;;19.73;3.25;;;10.40;99.90;;;;;;5104189;28;20043;-61
2023/05/17 07:52:54;;;;;;;13.73;2.50;;;10.40;99.90;;;;;;5099608;28;20059;-61
2023/05/17 07:55:20;;;;;;;15.63;3.30;;;10.40;99.90;;;;;;5090846;28;20117;-62
2023/05/17 07:57:47;;;;;;;14.25;3.58;;;10.40;99.90;;;;;;5123976;27;20052;-62
2023/05/17 08:00:13;;;;;;;13.20;3.80;;;10.40;99.90;;;;;;5106009;28;20042;-62
2023/05/17 08:02:39;;;;;;;14.18;3.28;;;10.50;99.90;;;;;;5091396;28;20104;-62
2023/05/17 08:05:07;;;;;;;14.88;3.50;;;10.50;99.90;;;;;;5097659;28;20031;-61
2023/05/17 08:07:32;;;;;;;14.20;3.05;;;10.80;99.90;;;;;;5108243;28;20104;-62
2023/05/17 08:09:58;;;;;;;14.18;2.80;;;10.90;99.90;;;;;;5103625;28;20075;-62
2023/05/17 08:12:24;;;;;;;13.82;4.03;;;11.00;99.90;;;;;;5091475;28;20075;-62
2023/05/17 08:14:50;;;;;;;11.25;2.65;;;11.00;99.90;;;;;;5109675;28;20743;-61
2023/05/17 08:17:15;;;;;;;9.52;2.50;;;11.00;99.90;;;;;;5101591;28;20507;-62
2023/05/17 08:19:41;;;;;;;19.85;2.85;;;11.00;99.90;;;;;;5108497;28;20044;-61
2023/05/17 08:22:08;;;;;;;11.00;2.67;;;11.10;99.90;;;;;;5109538;28;20046;-61
2023/05/17 08:24:33;;;;;;;11.57;2.67;;;11.30;99.90;;;;;;5099720;28;20070;-61
2023/05/17 08:26:59;;;;;;;11.25;2.58;;;11.30;99.90;;;;;;5092508;28;20503;-63
2023/05/17 08:29:25;;;;;;;11.48;2.60;;;11.30;99.90;;;;;;5095937;28;20032;-62
2023/05/17 08:31:51;;;;;;;7.70;2.40;;;11.40;99.90;;;;;;5104866;28;20036;-61
2023/05/17 08:34:17;;;;;;;8.25;2.58;;;11.40;99.90;;;;;;5092617;28;20063;-63
2023/05/17 08:36:43;;;;;;;7.95;2.78;;;11.50;99.90;;;;;;5091687;28;20447;-62
2023/05/17 08:39:09;;;;;;;7.80;2.28;;;11.50;99.30;;;;;;5093164;28;20088;-62
2023/05/17 08:41:35;;;;;;;9.60;2.28;;;11.40;99.60;;;;;;5073188;28;20115;-62
2023/05/17 08:44:03;;;;;;;9.80;2.20;;;11.40;99.60;;;;;;5075496;28;20044;-63
2023/05/17 08:46:30;;;;;;;6.68;2.10;;;11.40;99.40;;;;;;5092614;28;20082;-62
2023/05/17 08:48:58;;;;;;;9.57;2.33;;;11.50;99.50;;;;;;5108387;28;20573;-63
2023/05/17 08:51:25;;;;;;;12.35;2.25;;;11.50;99.00;;;;;;5124104;27;20032;-62
2023/05/17 08:53:51;;;;;;;8.52;2.20;;;11.50;98.60;;;;;;5094936;28;20127;-61
2023/05/17 08:56:19;;;;;;;12.77;2.17;;;11.60;98.00;;;;;;5109486;28;20131;-62
2023/05/17 08:58:47;;;;;;;12.38;2.22;;;11.80;97.80;;;;;;5107976;28;20119;-62
2023/05/17 09:01:15;;;;;;;11.80;2.78;;;11.90;97.10;;;;;;5102991;28;20542;-62
2023/05/17 09:03:43;;;;;;;8.07;2.08;;;12.00;96.70;;;;;;5103024;28;20092;-62
2023/05/17 09:06:09;;;;;;;12.40;2.28;;;11.90;96.70;;;;;;5111276;28;20491;-61
2023/05/17 09:08:36;;;;;;;8.55;2.47;;;11.80;97.40;;;;;;5112677;28;20388;-60
2023/05/17 09:11:02;;;;;;;8.70;2.40;;;11.70;97.90;;;;;;5101357;28;20043;-61
2023/05/17 09:13:28;;;;;;;10.63;2.78;;;11.60;98.20;;;;;;5092608;28;20368;-61
2023/05/17 09:15:54;;;;;;;9.18;2.25;;;11.60;98.50;;;;;;5098082;28;20503;-61
2023/05/17 09:18:29;;;;;;;10.40;2.67;;;11.50;97.00;;;;;;5092358;27;20039;-61
2023/05/17 09:21:00;;;;;;;7.32;1.98;;;11.30;97.20;;;;;;5101255;27;20469;-61
2023/05/17 09:23:26;;;;;;;7.72;2.20;;;11.30;97.50;;;;;;5111633;28;20130;-61
2023/05/17 09:25:52;;;;;;;7.90;1.75;;;11.30;98.10;;;;;;5111313;27;20035;-61
2023/05/17 09:28:21;;;;;;;8.95;1.83;;;11.40;98.10;;;;;;5098020;28;20059;-61
2023/05/17 09:30:48;;;;;;;10.93;2.05;;;11.40;98.00;;;;;;5110767;28;20058;-61
2023/05/17 09:33:14;;;;;;;7.95;2.20;;;11.60;97.60;;;;;;5106132;28;20036;-61
2023/05/17 09:35:41;;;;;;;8.77;1.90;;;11.70;97.10;;;;;;5105627;28;20100;-61
2023/05/17 09:38:11;;;;;;;11.82;2.90;;;11.70;96.40;;;;;;5093477;28;20418;-61
2023/05/17 09:40:46;;;;;;;9.65;2.55;;;12.00;96.30;;;;;;5101686;28;20040;-61
2023/05/17 09:43:12;;;;;;;;;;;12.10;95.90;;;;;;5095832;28;20096;-61
2023/05/17 09:45:38;;;;;;;8.90;2.63;;;12.00;94.80;;;;;;5110099;28;19924;-61
2023/05/17 09:48:12;;;;;;;9.95;2.50;;;12.00;95.80;;;;;;5111954;28;20046;-61
2023/05/17 09:50:44;;;;;;;11.23;2.47;;;12.10;96.10;;;;;;5093666;28;20035;-61
2023/05/17 09:53:30;;;;;;;7.68;2.17;;;12.20;96.50;;;;;;5109892;28;20047;-61
2023/05/17 09:56:01;;;;;;;10.38;3.00;;;12.30;96.10;;;;;;5102348;28;20040;-61
2023/05/17 09:58:30;;;;;;;9.77;2.35;;;12.30;96.10;;;;;;5099442;28;20035;-61
2023/05/17 10:00:58;;;;;;;6.93;1.83;;;12.10;95.60;;;;;;5110573;28;20040;-61
2023/05/17 10:03:31;;;;;;;4.97;2.13;;;12.20;95.90;;;;;;5099371;28;20427;-61
2023/05/17 10:05:59;;;;;;;9.88;2.15;;;12.00;96.30;;;;;;5114839;28;20079;-61
2023/05/17 10:08:27;;;;;;;10.30;3.40;;;12.10;96.50;;;;;;5123726;27;20435;-61
2023/05/17 10:10:57;;;;;;;10.00;2.38;;;12.20;96.20;;;;;;5100325;28;20031;-61
2023/05/17 10:13:29;;;;;;;13.70;2.83;;;12.40;96.60;;;;;;5109246;28;20039;-61
2023/05/17 10:15:55;;;;;;;7.80;2.00;;;12.60;96.80;;;;;;5112743;28;20035;-61
2023/05/17 10:18:22;;;;;;;13.07;3.25;;;12.50;96.60;;;;;;5094175;28;20036;-61
2023/05/17 10:20:48;;;;;;;11.82;3.53;;;12.50;97.30;;;;;;5085338;28;20050;-61
2023/05/17 10:23:15;;;;;;;12.20;3.38;;;12.50;98.10;;;;;;5097264;28;20043;-61
2023/05/17 10:25:42;;;;;;;11.45;2.60;;;12.40;97.80;;;;;;5096444;28;20527;-60
2023/05/17 10:28:10;;;;;;;10.80;3.33;;;12.20;98.40;;;;;;5097774;28;20071;-60
2023/05/17 10:30:37;;;;;;;9.90;2.42;;;12.30;98.40;;;;;;5110861;28;20115;-61
2023/05/17 10:33:03;;;;;;;10.35;2.38;;;12.40;98.30;;;;;;5098948;28;20476;-60
2023/05/17 10:35:31;;;;;;;10.60;2.60;;;12.40;97.90;;;;;;5104429;27;20089;-61
2023/05/17 10:37:57;;;;;;;10.30;3.15;;;12.40;97.70;;;;;;5110636;28;20040;-60
2023/05/17 10:40:23;;;;;;;12.23;3.28;;;12.40;98.00;;;;;;5104555;28;20396;-60
2023/05/17 10:42:51;;;;;;;9.07;2.53;;;12.50;97.20;;;;;;5103891;28;20424;-60
2023/05/17 10:45:21;;;;;;;8.90;2.50;;;12.60;97.30;;;;;;5095478;28;20062;-60
2023/05/17 10:47:52;;;;;;;9.20;2.25;;;12.70;97.50;;;;;;5077125;28;20089;-60
2023/05/17 10:50:23;;;;;;;9.05;2.90;;;12.70;97.10;;;;;;5099866;28;20039;-60
2023/05/17 10:52:49;;;;;;;9.50;2.17;;;12.70;97.60;;;;;;5099094;28;20050;-60
2023/05/17 10:55:36;;;;;;;12.32;3.38;;;12.80;97.70;;;;;;5090189;28;20094;-60
2023/05/17 10:58:19;;;;;;;10.02;2.22;;;12.80;96.60;;;;;;5103561;28;20044;-60
2023/05/17 11:00:50;;;;;;;9.10;2.45;;;12.80;97.30;;;;;;5091633;28;20048;-60
2023/05/17 11:03:29;;;;;;;10.57;2.67;;;12.80;97.20;;;;;;5103868;28;20114;-60
2023/05/17 11:06:17;;;;;;;12.65;2.42;;;12.70;96.90;;;;;;5105932;28;20380;-60
2023/05/17 11:09:06;;;;;;;8.10;2.03;;;12.70;97.10;;;;;;5094767;28;20074;-60
2023/05/17 11:11:32;;;;;;;12.02;2.78;;;12.70;97.30;;;;;;5107938;28;20075;-60
2023/05/17 11:14:03;;;;;;;11.40;2.50;;;12.60;97.20;;;;;;5101287;28;20043;-60
2023/05/17 11:16:36;;;;;;;12.93;2.70;;;12.50;97.00;;;;;;5110587;28;20088;-60
2023/05/17 11:19:10;;;;;;;7.65;2.33;;;12.30;96.80;;;;;;5096187;28;20504;-60
2023/05/17 11:21:45;;;;;;;10.00;3.07;;;12.30;97.30;;;;;;5110748;28;20054;-60
2023/05/17 11:24:18;;;;;;;7.85;2.08;;;12.40;97.30;;;;;;5110186;28;20514;-60
2023/05/17 11:26:44;;;;;;;10.50;2.60;;;12.60;97.40;;;;;;5100144;28;20093;-60
2023/05/17 11:29:11;;;;;;;13.13;2.92;;;12.60;96.00;;;;;;5106147;28;20122;-61
2023/05/17 11:31:44;;;;;;;6.75;1.65;;;12.60;95.90;;;;;;5112429;28;20088;-60
2023/05/17 11:34:11;;;;;;;6.70;2.05;;;12.70;95.20;;;;;;5111539;28;20085;-61
2023/05/17 11:36:52;;;;;;;8.50;1.92;;;12.80;95.10;;;;;;5094426;28;20068;-61
2023/05/17 11:39:20;;;;;;;7.63;2.60;;;12.80;95.30;;;;;;5094676;28;20074;-61
2023/05/17 11:41:54;;;;;;;11.73;2.55;;;12.70;95.20;;;;;;5109155;28;20523;-63
2023/05/17 11:44:31;;;;;;;5.13;1.70;;;12.70;95.10;;;;;;5106194;28;20047;-63
2023/05/17 11:47:05;;;;;;;11.50;2.55;;;12.60;95.00;;;;;;5094439;28;20048;-62
2023/05/17 11:49:37;;;;;;;6.27;1.77;;;12.80;95.20;;;;;;5126477;27;20042;-62
2023/05/17 11:52:07;;;;;;;8.35;1.63;;;13.00;95.60;;;;;;5092481;28;20036;-63
2023/05/17 11:54:33;;;;;;;6.10;1.90;;;13.00;94.00;;;;;;5126402;27;20040;-62
2023/05/17 11:57:01;;;;;;;4.70;1.52;;;12.90;93.50;;;;;;5093958;28;20081;-62
2023/05/17 11:59:26;;;;;;;9.45;1.95;;;12.80;93.40;;;;;;5125534;27;20047;-62
2023/05/17 12:01:52;;;;;;;11.68;1.90;;;12.70;93.00;;;;;;5093894;28;20035;-61
2023/05/17 12:04:25;;;;;;;10.02;1.77;;;12.70;92.90;;;;;;5093890;28;20392;-62
2023/05/17 12:06:53;;;;;;;7.57;2.25;;;12.80;92.20;;;;;;5092016;28;20105;-62
2023/05/17 12:09:19;;;;;;;8.80;2.55;;;13.00;92.90;;;;;;5126370;27;20036;-62
2023/05/17 12:11:46;;;;;;;11.77;3.45;;;12.80;92.10;;;;;;5075903;28;20108;-62
2023/05/17 12:14:17;;;;;;;7.53;2.60;;;12.80;92.00;;;;;;5125729;27;20115;-62
2023/05/17 12:16:52;;;;;;;8.07;2.10;;;12.80;92.40;;;;;;5125248;27;20516;-62
2023/05/17 12:19:19;;;;;;;8.25;2.10;;;12.90;92.60;;;;;;5074395;28;20058;-62
2023/05/17 12:21:45;;;;;;;7.28;2.40;;;12.70;91.80;;;;;;5092314;28;20113;-62
2023/05/17 12:24:11;;;;;;;7.20;2.08;;;12.80;92.80;;;;;;5126487;27;20079;-62
2023/05/17 12:26:43;;;;;;;8.02;1.92;;;13.00;91.90;;;;;;5125235;27;20083;-62
2023/05/17 12:29:09;;;;;;;8.95;1.92;;;13.10;91.50;;;;;;5093475;28;20105;-62
2023/05/17 12:31:48;;;;;;;9.75;2.25;;;13.10;91.10;;;;;;5125893;27;20040;-63
2023/05/17 12:34:16;;;;;;;7.25;2.00;;;13.20;90.90;;;;;;5125406;27;20052;-62
2023/05/17 12:36:43;;;;;;;8.48;2.05;;;13.40;91.00;;;;;;5093026;28;20040;-63
2023/05/17 12:39:10;;;;;;;9.02;2.10;;;13.50;90.10;;;;;;5092990;28;20062;-62
2023/05/17 12:41:37;;;;;;;6.70;1.75;;;13.60;88.00;;;;;;5091851;28;20052;-62
2023/05/17 12:44:05;;;;;;;7.75;2.35;;;13.60;87.10;;;;;;5093426;28;20036;-62
2023/05/17 12:46:31;;;;;;;9.65;2.22;;;13.50;86.30;;;;;;5092379;28;20488;-62
2023/05/17 12:49:05;;;;;;;7.68;2.13;;;13.50;86.30;;;;;;5125113;27;20124;-62